createdAt,value
2022-09-26T00:02:18.361Z,14.70
2022-09-26T00:05:23.952Z,14.90
2022-09-26T00:08:29.268Z,16.70
2022-09-26T00:11:35.626Z,16.10
2022-09-26T00:14:41.138Z,16.40
2022-09-26T00:17:46.593Z,17.00
2022-09-26T00:20:52.016Z,18.00
2022-09-26T00:23:58.700Z,17.70
2022-09-26T00:27:04.116Z,17.90
2022-09-26T00:30:11.651Z,18.20
2022-09-26T00:33:17.019Z,18.00
2022-09-26T00:36:29.811Z,17.40
2022-09-26T00:39:42.276Z,18.80
2022-09-26T00:42:47.827Z,17.20
2022-09-26T00:45:53.658Z,17.10
2022-09-26T00:49:15.218Z,16.80
2022-09-26T00:52:24.060Z,17.60
2022-09-26T00:55:35.168Z,16.80
2022-09-26T00:58:49.205Z,17.20
2022-09-26T01:01:56.990Z,17.10
2022-09-26T01:05:03.187Z,15.70
2022-09-26T01:08:09.014Z,16.10
2022-09-26T01:11:17.191Z,15.40
2022-09-26T01:14:23.309Z,14.80
2022-09-26T01:17:29.169Z,15.00
2022-09-26T01:20:44.463Z,15.10
2022-09-26T01:24:11.638Z,15.20
2022-09-26T01:27:44.390Z,15.60
2022-09-26T01:30:54.231Z,14.90
2022-09-26T01:34:05.951Z,17.20
2022-09-26T01:37:21.953Z,16.80
2022-09-26T01:43:48.913Z,15.30
2022-09-26T01:46:58.476Z,14.70
2022-09-26T01:50:08.413Z,14.90
2022-09-26T01:53:20.218Z,14.70
2022-09-26T01:56:29.456Z,12.10
2022-09-26T01:59:40.384Z,11.50
2022-09-26T02:02:47.838Z,9.60
2022-09-26T02:05:57.361Z,9.50
2022-09-26T02:09:10.521Z,9.30
2022-09-26T02:12:22.584Z,10.90
2022-09-26T02:15:32.421Z,13.30
2022-09-26T02:18:42.152Z,13.00
2022-09-26T02:21:47.989Z,14.50
2022-09-26T02:24:53.825Z,13.80
2022-09-26T02:27:59.551Z,12.80
2022-09-26T02:31:08.469Z,13.30
2022-09-26T02:34:14.392Z,14.10
2022-09-26T02:37:21.997Z,16.70
2022-09-26T02:40:35.405Z,16.00
2022-09-26T02:43:56.857Z,16.40
2022-09-26T02:47:16.392Z,14.90
2022-09-26T02:50:34.565Z,14.50
2022-09-26T02:53:58.671Z,14.50
2022-09-26T02:57:22.498Z,14.70
2022-09-26T03:00:33.872Z,14.60
2022-09-26T03:03:45.505Z,13.80
2022-09-26T03:06:55.813Z,13.10
2022-09-26T03:10:04.710Z,14.00
2022-09-26T03:13:14.370Z,12.30
2022-09-26T03:16:21.204Z,10.80
2022-09-26T03:19:32.554Z,10.00
2022-09-26T03:22:38.253Z,9.20
2022-09-26T03:25:44.572Z,9.10
2022-09-26T03:28:50.325Z,8.40
2022-09-26T03:31:55.725Z,8.70
2022-09-26T03:35:01.184Z,10.80
2022-09-26T03:38:08.310Z,10.70
2022-09-26T03:41:16.927Z,11.00
2022-09-26T03:44:22.895Z,11.20
2022-09-26T03:47:28.305Z,10.50
2022-09-26T03:50:34.765Z,10.10
2022-09-26T03:53:42.057Z,9.50
2022-09-26T03:56:47.325Z,9.90
2022-09-26T03:59:52.633Z,9.00
2022-09-26T04:03:02.822Z,9.70
2022-09-26T04:06:10.290Z,9.30
2022-09-26T04:09:17.730Z,9.30
2022-09-26T04:12:23.654Z,9.20
2022-09-26T04:15:30.019Z,10.00
2022-09-26T04:18:36.398Z,12.20
2022-09-26T04:21:42.378Z,12.20
2022-09-26T04:24:47.691Z,13.60
2022-09-26T04:27:52.978Z,14.60
2022-09-26T04:31:01.509Z,13.90
2022-09-26T04:34:07.635Z,13.90
2022-09-26T04:37:13.420Z,15.10
2022-09-26T04:40:18.887Z,14.40
2022-09-26T04:43:24.389Z,14.80
2022-09-26T04:46:31.442Z,13.30
2022-09-26T04:49:36.954Z,10.70
2022-09-26T04:52:42.971Z,10.50
2022-09-26T04:55:49.313Z,10.20
2022-09-26T04:58:56.643Z,10.30
2022-09-26T05:02:02.699Z,11.10
2022-09-26T05:05:09.697Z,11.80
2022-09-26T05:08:15.657Z,11.50
2022-09-26T05:11:21.619Z,11.20
2022-09-26T05:14:27.326Z,11.70
2022-09-26T05:17:33.180Z,11.30
2022-09-26T05:20:38.514Z,10.90
2022-09-26T05:24:01.640Z,10.50
2022-09-26T05:27:08.325Z,10.80
2022-09-26T05:30:14.121Z,10.40
2022-09-26T05:33:20.303Z,10.20
2022-09-26T05:36:25.847Z,10.10
2022-09-26T05:39:48.730Z,9.60
2022-09-26T05:43:00.384Z,10.10
2022-09-26T05:46:07.878Z,10.30
2022-09-26T05:49:14.854Z,10.80
2022-09-26T05:52:22.408Z,10.20
2022-09-26T05:55:28.461Z,10.80
2022-09-26T05:58:35.454Z,13.30
2022-09-26T06:01:40.832Z,13.50
2022-09-26T06:04:46.240Z,13.90
2022-09-26T06:07:51.971Z,14.20
2022-09-26T06:11:01.409Z,14.50
2022-09-26T06:14:08.392Z,15.60
2022-09-26T06:17:13.741Z,17.60
2022-09-26T06:20:19.390Z,18.40
2022-09-26T06:23:24.773Z,17.60
2022-09-26T06:26:30.196Z,32.80
2022-09-26T06:29:35.524Z,17.50
2022-09-26T06:32:40.903Z,16.80
2022-09-26T06:35:46.200Z,16.20
2022-09-26T06:38:52.131Z,16.20
2022-09-26T06:41:57.448Z,16.00
2022-09-26T06:45:02.730Z,14.40
2022-09-26T06:48:08.148Z,14.40
2022-09-26T06:51:14.528Z,14.50
2022-09-26T06:54:19.953Z,15.20
2022-09-26T06:57:25.236Z,14.60
2022-09-26T07:00:30.736Z,15.50
2022-09-26T07:03:38.631Z,14.80
2022-09-26T07:06:47.175Z,14.40
2022-09-26T07:09:52.482Z,15.90
2022-09-26T07:13:03.272Z,16.10
2022-09-26T07:16:09.199Z,14.70
2022-09-26T07:19:16.230Z,14.50
2022-09-26T07:22:21.659Z,16.00
2022-09-26T07:25:27.025Z,16.30
2022-09-26T07:28:32.458Z,16.70
2022-09-26T07:31:38.169Z,16.90
2022-09-26T07:34:44.017Z,16.50
2022-09-26T07:37:53.817Z,17.00
2022-09-26T07:41:00.911Z,17.00
2022-09-26T07:47:52.522Z,18.30
2022-09-26T07:51:00.186Z,16.40
2022-09-26T07:54:05.809Z,16.80
2022-09-26T07:57:11.891Z,17.70
2022-09-26T08:00:21.370Z,17.50
2022-09-26T08:03:28.593Z,17.50
2022-09-26T08:06:36.784Z,15.80
2022-09-26T08:09:42.110Z,15.60
2022-09-26T08:12:48.177Z,16.70
2022-09-26T08:15:54.350Z,17.20
2022-09-26T08:22:07.538Z,17.40
2022-09-26T08:25:13.424Z,16.00
2022-09-26T08:28:18.842Z,15.60
2022-09-26T08:31:24.191Z,15.30
2022-09-26T08:34:32.276Z,16.60
2022-09-26T08:37:37.598Z,15.40
2022-09-26T08:40:51.487Z,13.20
2022-09-26T08:44:08.310Z,12.20
2022-09-26T08:47:29.679Z,13.00
2022-09-26T08:50:46.393Z,13.40
2022-09-26T08:53:58.489Z,14.70
2022-09-26T08:57:08.557Z,13.50
2022-09-26T09:00:22.606Z,13.50
2022-09-26T09:03:33.463Z,12.40
2022-09-26T09:06:39.237Z,13.60
2022-09-26T09:09:44.646Z,14.30
2022-09-26T09:13:01.997Z,12.40
2022-09-26T09:16:20.078Z,11.40
2022-09-26T09:19:33.863Z,11.10
2022-09-26T09:22:53.563Z,11.20
2022-09-26T09:29:56.722Z,10.40
2022-09-26T09:33:05.402Z,10.60
2022-09-26T09:36:15.044Z,11.80
2022-09-26T09:39:27.570Z,11.70
2022-09-26T09:42:41.857Z,10.20
2022-09-26T09:45:51.589Z,10.30
2022-09-26T09:49:01.470Z,10.30
2022-09-26T09:52:20.479Z,9.40
2022-09-26T09:55:39.832Z,10.70
2022-09-26T09:59:03.748Z,10.10
2022-09-26T10:02:22.079Z,9.60
2022-09-26T10:05:36.828Z,9.90
2022-09-26T10:08:43.301Z,9.60
2022-09-26T10:11:52.500Z,9.80
2022-09-26T10:15:03.248Z,9.30
2022-09-26T10:18:29.550Z,8.60
2022-09-26T10:21:40.848Z,8.90
2022-09-26T10:24:48.873Z,8.20
2022-09-26T10:27:57.468Z,10.30
2022-09-26T10:31:10.557Z,10.40
2022-09-26T10:34:28.010Z,10.60
2022-09-26T10:37:33.856Z,10.40
2022-09-26T10:40:46.178Z,9.80
2022-09-26T10:43:56.492Z,10.90
2022-09-26T10:47:08.309Z,11.20
2022-09-26T10:50:16.754Z,10.60
2022-09-26T10:53:24.185Z,9.70
2022-09-26T10:56:36.741Z,11.00
2022-09-26T10:59:43.549Z,10.10
2022-09-26T11:02:52.304Z,10.00
2022-09-26T11:05:57.650Z,9.40
2022-09-26T11:09:04.750Z,9.30
2022-09-26T11:12:29.196Z,9.20
2022-09-26T11:15:34.644Z,9.70
2022-09-26T11:18:49.441Z,10.50
2022-09-26T11:22:05.755Z,10.80
2022-09-26T11:25:19.628Z,10.70
2022-09-26T11:28:31.536Z,14.10
2022-09-26T11:31:41.037Z,9.10
2022-09-26T11:34:47.283Z,9.60
2022-09-26T11:41:40.954Z,7.30
2022-09-26T11:45:06.109Z,7.60
2022-09-26T11:48:32.936Z,6.90
2022-09-26T11:51:50.928Z,7.10
2022-09-26T11:55:11.837Z,7.30
2022-09-26T11:58:28.025Z,6.60
2022-09-26T12:01:44.178Z,13.60
2022-09-26T12:05:02.646Z,20.00
2022-09-26T12:08:20.696Z,20.60
2022-09-26T12:11:36.953Z,5.00
2022-09-26T12:14:54.202Z,4.50
2022-09-26T12:18:13.820Z,8.60
2022-09-26T12:21:32.182Z,12.50
2022-09-26T12:24:46.260Z,6.70
2022-09-26T12:28:02.124Z,4.50
2022-09-26T12:31:19.780Z,3.80
2022-09-26T12:34:45.128Z,4.70
2022-09-26T12:38:07.289Z,4.10
2022-09-26T12:41:39.483Z,3.50
2022-09-26T12:45:11.831Z,4.40
2022-09-26T12:48:38.256Z,4.00
2022-09-26T12:51:48.119Z,3.50
2022-09-26T12:55:07.734Z,7.40
2022-09-26T12:58:32.338Z,3.40
2022-09-26T13:02:00.733Z,3.90
2022-09-26T13:05:22.415Z,3.30
2022-09-26T13:08:36.878Z,3.40
2022-09-26T13:11:55.084Z,3.30
2022-09-26T13:15:17.369Z,3.20
2022-09-26T13:18:33.161Z,3.20
2022-09-26T13:21:49.789Z,3.00
2022-09-26T13:25:00.445Z,3.30
2022-09-26T13:28:11.512Z,3.30
2022-09-26T13:31:22.754Z,3.00
2022-09-26T13:34:35.930Z,4.70
2022-09-26T13:37:50.501Z,4.00
2022-09-26T13:41:05.067Z,19.30
2022-09-26T13:44:23.547Z,3.40
2022-09-26T13:47:39.981Z,18.10
2022-09-26T13:50:54.836Z,10.50
2022-09-26T13:54:10.665Z,3.90
2022-09-26T14:00:53.501Z,3.50
2022-09-26T14:04:18.982Z,2.70
2022-09-26T14:08:05.329Z,2.80
2022-09-26T14:11:24.521Z,3.50
2022-09-26T14:14:44.317Z,3.10
2022-09-26T14:18:16.434Z,5.20
2022-09-26T14:21:35.123Z,3.20
2022-09-26T14:24:42.370Z,3.20
2022-09-26T14:27:49.430Z,3.10
2022-09-26T14:31:22.267Z,3.20
2022-09-26T14:34:30.497Z,3.60
2022-09-26T14:37:42.577Z,3.20
2022-09-26T14:40:57.823Z,3.40
2022-09-26T14:44:05.461Z,3.30
2022-09-26T14:47:17.266Z,3.10
2022-09-26T14:50:35.482Z,3.10
2022-09-26T14:53:45.229Z,3.30
2022-09-26T14:56:59.578Z,3.00
2022-09-26T15:00:35.053Z,3.30
2022-09-26T15:03:41.216Z,3.80
2022-09-26T15:06:52.058Z,10.60
2022-09-26T15:10:03.207Z,22.70
2022-09-26T15:13:24.170Z,17.60
2022-09-26T15:16:37.612Z,6.60
2022-09-26T15:19:50.329Z,6.70
2022-09-26T15:22:57.458Z,8.30
2022-09-26T15:26:03.772Z,8.40
2022-09-26T15:29:12.144Z,14.10
2022-09-26T15:32:25.865Z,43.70
2022-09-26T15:35:31.959Z,49.60
2022-09-26T15:42:04.285Z,19.80
2022-09-26T15:45:26.279Z,9.50
2022-09-26T15:48:33.314Z,5.20
2022-09-26T15:51:40.773Z,4.80
2022-09-26T15:54:46.443Z,5.30
2022-09-26T15:57:55.941Z,4.40
2022-09-26T16:01:01.782Z,4.60
2022-09-26T16:04:14.884Z,5.40
2022-09-26T16:07:25.008Z,5.90
2022-09-26T16:10:35.640Z,6.40
2022-09-26T16:13:46.288Z,6.90
2022-09-26T16:16:51.732Z,6.70
2022-09-26T16:19:58.970Z,6.60
2022-09-26T16:23:05.872Z,6.40
2022-09-26T16:26:32.430Z,7.10
2022-09-26T16:29:39.089Z,6.30
2022-09-26T16:32:44.539Z,5.90
2022-09-26T16:35:51.633Z,6.20
2022-09-26T16:39:02.739Z,6.70
2022-09-26T16:42:17.873Z,6.80
2022-09-26T16:45:23.502Z,6.30
2022-09-26T16:48:37.604Z,5.80
2022-09-26T16:51:42.939Z,4.50
2022-09-26T16:54:48.713Z,5.10
2022-09-26T16:57:57.849Z,5.60
2022-09-26T17:01:20.632Z,8.00
2022-09-26T17:04:31.312Z,8.20
2022-09-26T17:07:36.705Z,6.40
2022-09-26T17:10:44.061Z,4.80
2022-09-26T17:13:51.697Z,5.30
2022-09-26T17:16:58.402Z,9.70
2022-09-26T17:20:05.140Z,8.10
2022-09-26T17:23:34.861Z,8.40
2022-09-26T17:26:37.723Z,10.20
2022-09-26T17:29:48.593Z,9.20
2022-09-26T17:32:55.265Z,7.00
2022-09-26T17:36:00.802Z,5.50
2022-09-26T17:39:14.049Z,9.40
2022-09-26T17:42:20.394Z,8.50
2022-09-26T17:45:30.337Z,6.80
2022-09-26T17:48:35.911Z,12.50
2022-09-26T17:51:42.867Z,9.60
2022-09-26T17:54:52.232Z,8.70
2022-09-26T17:57:58.503Z,7.80
2022-09-26T18:01:04.519Z,7.50
2022-09-26T18:04:17.933Z,8.00
2022-09-26T18:07:24.474Z,7.50
2022-09-26T18:10:33.802Z,7.90
2022-09-26T18:13:44.826Z,7.40
2022-09-26T18:16:50.257Z,7.90
2022-09-26T18:19:55.567Z,10.20
2022-09-26T18:23:01.159Z,12.30
2022-09-26T18:26:08.229Z,12.80
2022-09-26T18:29:16.908Z,13.10
2022-09-26T18:32:29.092Z,11.60
2022-09-26T18:35:34.604Z,11.10
2022-09-26T18:38:40.054Z,14.60
2022-09-26T18:41:46.237Z,13.20
2022-09-26T18:47:57.133Z,16.90
2022-09-26T18:51:03.407Z,17.40
2022-09-26T18:54:13.423Z,14.40
2022-09-26T18:57:35.491Z,14.50
2022-09-26T19:00:41.102Z,14.40
2022-09-26T19:03:48.579Z,15.10
2022-09-26T19:07:00.885Z,14.10
2022-09-26T19:10:07.918Z,13.10
2022-09-26T19:13:13.253Z,14.10
2022-09-26T19:16:19.671Z,13.60
2022-09-26T19:19:26.188Z,13.90
2022-09-26T19:22:31.666Z,18.20
2022-09-26T19:25:36.981Z,17.00
2022-09-26T19:28:42.283Z,17.30
2022-09-26T19:31:47.743Z,15.60
2022-09-26T19:34:56.906Z,14.00
2022-09-26T19:38:03.813Z,13.70
2022-09-26T19:41:09.272Z,16.30
2022-09-26T19:44:14.823Z,36.30
2022-09-26T19:47:22.481Z,19.50
2022-09-26T19:50:29.128Z,14.70
2022-09-26T19:53:37.460Z,11.10
2022-09-26T19:56:43.235Z,11.60
2022-09-26T19:59:49.398Z,11.40
2022-09-26T20:06:00.096Z,12.60
2022-09-26T20:09:07.521Z,13.50
2022-09-26T20:12:13.488Z,13.10
2022-09-26T20:15:21.147Z,12.80
2022-09-26T20:18:26.721Z,11.90
2022-09-26T20:21:33.625Z,13.70
2022-09-26T20:24:42.133Z,14.00
2022-09-26T20:27:47.430Z,14.10
2022-09-26T20:30:52.968Z,12.50
2022-09-26T20:34:00.186Z,14.20
2022-09-26T20:37:05.775Z,12.10
2022-09-26T20:40:18.237Z,12.00
2022-09-26T20:43:31.353Z,13.40
2022-09-26T20:46:40.556Z,14.10
2022-09-26T20:49:51.075Z,13.50
2022-09-26T20:52:56.387Z,13.50
2022-09-26T20:56:04.034Z,13.50
2022-09-26T20:59:09.386Z,12.70
2022-09-26T21:02:27.111Z,12.80
2022-09-26T21:05:32.674Z,12.50
2022-09-26T21:08:38.330Z,12.40
2022-09-26T21:11:43.982Z,13.40
2022-09-26T21:14:49.289Z,12.80
2022-09-26T21:17:56.257Z,13.90
2022-09-26T21:21:06.751Z,12.50
2022-09-26T21:24:24.150Z,11.70
2022-09-26T21:27:30.503Z,11.30
2022-09-26T21:30:36.204Z,11.70
2022-09-26T21:33:41.907Z,12.40
2022-09-26T21:36:47.800Z,13.70
2022-09-26T21:39:53.413Z,13.40
2022-09-26T21:43:01.919Z,14.60
2022-09-26T21:46:08.387Z,14.10
2022-09-26T21:49:13.776Z,15.10
2022-09-26T21:52:24.649Z,14.80
2022-09-26T21:55:33.714Z,16.80
2022-09-26T21:58:41.941Z,14.70
2022-09-26T22:01:47.332Z,13.70
2022-09-26T22:04:53.077Z,13.50
2022-09-26T22:07:59.026Z,12.00
2022-09-26T22:11:04.486Z,12.20
2022-09-26T22:14:10.032Z,14.20
2022-09-26T22:17:15.381Z,15.60
2022-09-26T22:20:20.831Z,17.00
2022-09-26T22:23:26.264Z,16.30
2022-09-26T22:26:31.630Z,17.80
2022-09-26T22:29:36.928Z,18.30
2022-09-26T22:32:42.431Z,18.80
2022-09-26T22:35:50.417Z,18.80
2022-09-26T22:38:55.889Z,16.80
2022-09-26T22:42:01.392Z,14.90
2022-09-26T22:45:07.933Z,15.10
2022-09-26T22:48:13.293Z,17.10
2022-09-26T22:51:19.512Z,16.50
2022-09-26T22:57:29.249Z,14.30
2022-09-26T23:00:34.602Z,16.80
2022-09-26T23:03:41.974Z,16.00
2022-09-26T23:06:47.304Z,16.10
2022-09-26T23:09:52.653Z,15.80
2022-09-26T23:12:58.313Z,16.40
2022-09-26T23:16:07.904Z,14.80
2022-09-26T23:19:13.244Z,15.50
2022-09-26T23:22:18.677Z,13.80
2022-09-26T23:25:24.127Z,12.60
2022-09-26T23:28:29.778Z,14.30
2022-09-26T23:31:35.157Z,13.20
2022-09-26T23:34:40.579Z,13.30
2022-09-26T23:37:45.905Z,13.30
2022-09-26T23:40:51.299Z,13.00
2022-09-26T23:43:57.044Z,13.10
2022-09-26T23:47:04.326Z,12.60
2022-09-26T23:50:10.619Z,11.50
2022-09-26T23:53:16.908Z,11.70
2022-09-26T23:56:22.347Z,11.90
2022-09-26T23:59:27.804Z,11.70
